createdAt,value
2017-12-13T00:00:52.059Z,2.41
2017-12-13T00:02:00.902Z,2.4
2017-12-13T00:03:09.701Z,2.41
2017-12-13T00:04:18.772Z,2.42
2017-12-13T00:05:28.100Z,2.44
2017-12-13T00:06:36.631Z,2.44
2017-12-13T00:07:45.431Z,2.4
2017-12-13T00:08:53.959Z,2.42
2017-12-13T00:10:02.756Z,2.47
2017-12-13T00:11:11.830Z,2.44
2017-12-13T00:12:20.358Z,2.38
2017-12-13T00:13:29.160Z,2.47
2017-12-13T00:14:37.956Z,2.44
2017-12-13T00:15:46.751Z,2.36
2017-12-13T00:16:55.277Z,2.36
2017-12-13T00:18:04.388Z,2.29
2017-12-13T00:19:12.922Z,2.33
2017-12-13T00:20:21.720Z,2.36
2017-12-13T00:21:30.517Z,2.36
2017-12-13T00:22:39.048Z,2.41
2017-12-13T00:23:47.845Z,2.33
2017-12-13T00:24:56.644Z,2.34
2017-12-13T00:26:05.500Z,2.27
2017-12-13T00:27:13.970Z,2.36
2017-12-13T00:28:22.499Z,2.42
2017-12-13T00:29:31.828Z,2.3
2017-12-13T00:30:40.623Z,2.31
2017-12-13T00:31:49.688Z,2.3
2017-12-13T00:32:58.632Z,2.24
2017-12-13T00:34:07.428Z,2.41
2017-12-13T00:35:15.956Z,2.31
2017-12-13T00:36:25.289Z,2.31
2017-12-13T00:37:34.087Z,2.3
2017-12-13T00:38:42.882Z,2.27
2017-12-13T00:39:51.690Z,2.3
2017-12-13T00:41:00.218Z,2.31
2017-12-13T00:42:08.745Z,2.38
2017-12-13T00:43:17.548Z,2.29
2017-12-13T00:44:26.622Z,2.31
2017-12-13T00:45:35.150Z,2.31
2017-12-13T00:46:43.945Z,2.33
2017-12-13T00:47:52.741Z,2.31
2017-12-13T00:49:01.585Z,2.33
2017-12-13T00:50:10.382Z,2.3
2017-12-13T00:51:19.183Z,2.3
2017-12-13T00:52:28.252Z,2.33
2017-12-13T00:53:36.781Z,2.29
2017-12-13T00:54:45.846Z,2.22
2017-12-13T00:55:54.643Z,2.31
2017-12-13T00:57:03.705Z,2.3
2017-12-13T00:58:12.503Z,2.18
2017-12-13T00:59:21.568Z,2.18
2017-12-13T01:00:30.096Z,2.18
2017-12-13T01:01:38.895Z,2.16
2017-12-13T01:02:47.962Z,2.23
2017-12-13T01:03:56.758Z,2.16
2017-12-13T01:05:05.292Z,2.22
2017-12-13T01:06:13.824Z,2.24
2017-12-13T01:07:22.885Z,2.26
2017-12-13T01:08:31.413Z,2.22
2017-12-13T01:09:39.940Z,2.24
2017-12-13T01:10:48.737Z,2.2
2017-12-13T01:11:57.265Z,2.16
2017-12-13T01:13:06.330Z,2.2
2017-12-13T01:14:15.660Z,2.15
2017-12-13T01:15:24.470Z,2.24
2017-12-13T01:16:33.531Z,2.22
2017-12-13T01:17:42.064Z,2.16
2017-12-13T01:18:50.858Z,2.22
2017-12-13T01:19:59.389Z,2.18
2017-12-13T01:21:08.187Z,2.22
2017-12-13T01:22:16.983Z,2.2
2017-12-13T01:23:26.323Z,2.22
2017-12-13T01:24:34.856Z,2.18
2017-12-13T01:25:44.185Z,2.15
2017-12-13T01:26:52.715Z,2.12
2017-12-13T01:28:01.781Z,2.16
2017-12-13T01:29:10.847Z,2.2
2017-12-13T01:30:19.641Z,2.18
2017-12-13T01:31:28.441Z,2.12
2017-12-13T01:32:36.971Z,2.16
2017-12-13T01:33:45.771Z,2.12
2017-12-13T01:34:54.566Z,2.18
2017-12-13T01:36:03.096Z,2.12
2017-12-13T01:37:11.627Z,2.08
2017-12-13T01:38:20.688Z,2.15
2017-12-13T01:39:29.486Z,2.15
2017-12-13T01:40:38.016Z,2.15
2017-12-13T01:41:46.812Z,2.2
2017-12-13T01:42:55.875Z,2.11
2017-12-13T01:44:04.404Z,2.13
2017-12-13T01:45:13.196Z,2.06
2017-12-13T01:46:21.726Z,2.05
2017-12-13T01:47:30.258Z,2.12
2017-12-13T01:48:39.387Z,2.06
2017-12-13T01:49:47.863Z,2.12
2017-12-13T01:50:56.657Z,2.12
2017-12-13T01:52:05.462Z,2.16
2017-12-13T01:53:14.264Z,2.11
2017-12-13T01:54:23.059Z,2.12
2017-12-13T01:55:31.588Z,2.15
2017-12-13T01:56:40.652Z,2.09
2017-12-13T01:57:49.452Z,2.2
2017-12-13T01:58:58.253Z,2.18
2017-12-13T02:00:07.054Z,2.2
2017-12-13T02:01:15.854Z,2.26
2017-12-13T02:02:24.653Z,2.16
2017-12-13T02:03:33.184Z,2.2
2017-12-13T02:04:41.981Z,2.26
2017-12-13T02:05:51.043Z,2.22
2017-12-13T02:06:59.840Z,2.26
2017-12-13T02:08:08.370Z,2.31
2017-12-13T02:09:17.162Z,2.27
2017-12-13T02:10:25.693Z,2.23
2017-12-13T02:11:34.223Z,2.26
2017-12-13T02:12:43.289Z,2.34
2017-12-13T02:13:51.818Z,2.41
2017-12-13T02:15:00.891Z,2.44
2017-12-13T02:16:09.420Z,2.3
2017-12-13T02:17:18.216Z,2.42
2017-12-13T02:18:26.748Z,2.41
2017-12-13T02:19:35.276Z,2.41
2017-12-13T02:20:44.340Z,2.38
2017-12-13T02:21:53.137Z,2.51
2017-12-13T02:23:02.200Z,2.41
2017-12-13T02:24:10.732Z,2.51
2017-12-13T02:25:19.265Z,2.52
2017-12-13T02:26:28.324Z,2.49
2017-12-13T02:27:36.853Z,2.38
2017-12-13T02:28:45.651Z,2.36
2017-12-13T02:29:54.448Z,2.41
2017-12-13T02:31:03.523Z,2.48
2017-12-13T02:32:12.584Z,2.51
2017-12-13T02:33:21.112Z,2.55
2017-12-13T02:34:29.640Z,2.51
2017-12-13T02:35:38.443Z,2.44
2017-12-13T02:36:46.970Z,2.38
2017-12-13T02:37:55.770Z,2.42
2017-12-13T02:39:04.844Z,2.41
2017-12-13T02:40:13.639Z,2.42
2017-12-13T02:41:22.172Z,2.42
2017-12-13T02:42:31.240Z,2.42
2017-12-13T02:43:40.040Z,2.38
2017-12-13T02:44:48.853Z,2.38
2017-12-13T02:45:57.379Z,2.4
2017-12-13T02:47:06.176Z,2.4
2017-12-13T02:48:14.975Z,2.4
2017-12-13T02:49:23.508Z,2.4
2017-12-13T02:50:32.303Z,2.34
2017-12-13T02:51:41.367Z,2.34
2017-12-13T02:52:49.903Z,2.36
2017-12-13T02:53:58.716Z,2.4
2017-12-13T02:55:07.247Z,2.3
2017-12-13T02:56:15.780Z,2.3
2017-12-13T02:57:24.310Z,2.29
2017-12-13T02:58:32.839Z,2.26
2017-12-13T02:59:43.132Z,2.34
2017-12-13T03:00:52.202Z,2.33
2017-12-13T03:02:01.273Z,2.31
2017-12-13T03:03:09.800Z,2.31
2017-12-13T03:04:18.331Z,2.27
2017-12-13T03:05:27.606Z,2.33
2017-12-13T03:06:36.404Z,2.34
2017-12-13T03:07:45.206Z,2.31
2017-12-13T03:08:54.004Z,2.34
2017-12-13T03:10:02.801Z,2.31
2017-12-13T03:11:11.596Z,2.31
2017-12-13T03:12:20.393Z,2.34
2017-12-13T03:13:29.456Z,2.29
2017-12-13T03:14:38.254Z,2.36
2017-12-13T03:15:47.050Z,2.27
2017-12-13T03:16:55.844Z,2.27
2017-12-13T03:18:04.906Z,2.26
2017-12-13T03:19:13.699Z,2.36
2017-12-13T03:20:22.230Z,2.34
2017-12-13T03:21:31.293Z,2.24
2017-12-13T03:22:40.090Z,2.4
2017-12-13T03:23:48.619Z,2.36
2017-12-13T03:24:57.150Z,2.34
2017-12-13T03:26:05.954Z,2.27
2017-12-13T03:27:14.482Z,2.4
2017-12-13T03:28:23.277Z,2.36
2017-12-13T03:29:31.807Z,2.33
2017-12-13T03:30:40.610Z,2.36
2017-12-13T03:31:49.687Z,2.34
2017-12-13T03:32:58.870Z,2.34
2017-12-13T03:34:08.182Z,2.33
2017-12-13T03:35:16.714Z,2.41
2017-12-13T03:36:25.243Z,2.42
2017-12-13T03:37:34.039Z,2.31
2017-12-13T03:38:43.370Z,2.33
2017-12-13T03:39:52.166Z,2.41
2017-12-13T03:41:00.962Z,2.4
2017-12-13T03:42:09.761Z,2.31
2017-12-13T03:43:18.824Z,2.42
2017-12-13T03:44:27.620Z,2.42
2017-12-13T03:45:36.417Z,2.4
2017-12-13T03:46:45.211Z,2.4
2017-12-13T03:47:53.742Z,2.38
2017-12-13T03:49:02.832Z,2.42
2017-12-13T03:50:12.627Z,2.4
2017-12-13T03:51:21.431Z,2.4
2017-12-13T03:52:30.499Z,2.41
2017-12-13T03:53:39.295Z,2.4
2017-12-13T03:54:47.826Z,2.4
2017-12-13T03:55:56.620Z,2.38
2017-12-13T03:57:05.151Z,2.44
2017-12-13T03:58:13.685Z,2.4
2017-12-13T03:59:22.751Z,2.26
2017-12-13T04:00:31.638Z,2.27
2017-12-13T04:01:41.105Z,2.33
2017-12-13T04:02:49.629Z,2.36
2017-12-13T04:03:58.165Z,2.26
2017-12-13T04:05:07.238Z,2.24
2017-12-13T04:06:15.765Z,2.38
2017-12-13T04:07:24.828Z,2.27
2017-12-13T04:08:33.632Z,2.26
2017-12-13T04:09:42.427Z,2.36
2017-12-13T04:10:50.959Z,2.29
2017-12-13T04:11:59.506Z,2.27
2017-12-13T04:13:08.447Z,2.31
2017-12-13T04:14:17.511Z,2.31
2017-12-13T04:15:26.043Z,2.23
2017-12-13T04:16:35.413Z,2.27
2017-12-13T04:17:43.973Z,2.27
2017-12-13T04:18:52.767Z,2.29
2017-12-13T04:20:01.298Z,2.4
2017-12-13T04:21:09.829Z,2.38
2017-12-13T04:22:18.360Z,2.36
2017-12-13T04:23:26.889Z,2.45
2017-12-13T04:24:35.688Z,2.42
2017-12-13T04:25:44.218Z,2.36
2017-12-13T04:26:52.748Z,2.42
2017-12-13T04:28:01.547Z,2.52
2017-12-13T04:29:10.347Z,2.48
2017-12-13T04:30:18.880Z,2.52
2017-12-13T04:31:27.729Z,2.34
2017-12-13T04:32:36.265Z,2.48
2017-12-13T04:33:44.810Z,2.36
2017-12-13T04:34:53.624Z,2.41
2017-12-13T04:36:02.571Z,2.42
2017-12-13T04:37:11.373Z,2.36
2017-12-13T04:38:20.436Z,2.42
2017-12-13T04:39:28.972Z,2.44
2017-12-13T04:40:37.770Z,2.41
2017-12-13T04:41:46.833Z,2.36
2017-12-13T04:42:55.658Z,2.4
2017-12-13T04:44:04.455Z,2.44
2017-12-13T04:45:13.523Z,2.4
2017-12-13T04:46:22.597Z,2.45
2017-12-13T04:47:31.184Z,2.42
2017-12-13T04:48:40.248Z,2.41
2017-12-13T04:49:49.044Z,2.42
2017-12-13T04:50:58.112Z,2.47
2017-12-13T04:52:06.906Z,2.51
2017-12-13T04:53:15.706Z,2.4
2017-12-13T04:54:24.238Z,2.47
2017-12-13T04:55:32.772Z,2.41
2017-12-13T04:56:41.569Z,2.4
2017-12-13T04:57:50.365Z,2.38
2017-12-13T04:58:58.896Z,2.34
2017-12-13T05:00:07.425Z,2.33
2017-12-13T05:01:16.221Z,2.38
2017-12-13T05:02:24.763Z,2.38
2017-12-13T05:03:33.558Z,2.33
2017-12-13T05:04:42.088Z,2.3
2017-12-13T05:05:51.155Z,2.34
2017-12-13T05:06:59.950Z,2.27
2017-12-13T05:08:09.020Z,2.4
2017-12-13T05:09:18.083Z,2.34
2017-12-13T05:10:26.612Z,2.34
2017-12-13T05:11:35.677Z,2.29
2017-12-13T05:12:44.741Z,2.4
2017-12-13T05:13:53.538Z,2.33
2017-12-13T05:15:02.335Z,2.26
2017-12-13T05:16:11.131Z,2.26
2017-12-13T05:17:19.928Z,2.3
2017-12-13T05:18:28.460Z,2.36
2017-12-13T05:19:37.257Z,2.29
2017-12-13T05:20:46.055Z,2.31
2017-12-13T05:21:55.122Z,2.27
2017-12-13T05:23:04.183Z,2.23
2017-12-13T05:24:12.986Z,2.38
2017-12-13T05:25:21.786Z,2.3
2017-12-13T05:26:30.315Z,2.29
2017-12-13T05:27:39.909Z,2.34
2017-12-13T05:28:48.441Z,2.33
2017-12-13T05:29:57.238Z,2.31
2017-12-13T05:31:06.298Z,2.36
2017-12-13T05:32:15.360Z,2.33
2017-12-13T05:33:23.892Z,2.26
2017-12-13T05:34:32.424Z,2.42
2017-12-13T05:35:41.487Z,2.36
2017-12-13T05:36:50.288Z,2.41
2017-12-13T05:37:58.819Z,2.27
2017-12-13T05:39:07.886Z,2.27
2017-12-13T05:40:16.680Z,2.4
2017-12-13T05:41:25.477Z,2.4
2017-12-13T05:42:34.539Z,2.31
2017-12-13T05:43:43.070Z,2.27
2017-12-13T05:44:51.868Z,2.42
2017-12-13T05:46:00.666Z,2.34
2017-12-13T05:47:09.994Z,2.29
2017-12-13T05:48:18.524Z,2.34
2017-12-13T05:49:27.322Z,2.34
2017-12-13T05:50:35.851Z,2.33
2017-12-13T05:51:44.649Z,2.4
2017-12-13T05:52:53.177Z,2.34
2017-12-13T05:54:01.977Z,2.45
2017-12-13T05:55:10.504Z,2.38
2017-12-13T05:56:19.034Z,2.42
2017-12-13T05:57:27.832Z,2.51
2017-12-13T05:58:36.626Z,2.49
2017-12-13T05:59:45.155Z,2.52
2017-12-13T06:00:53.953Z,2.59
2017-12-13T06:02:02.751Z,2.54
2017-12-13T06:03:11.817Z,2.55
2017-12-13T06:04:20.616Z,2.67
2017-12-13T06:05:29.680Z,2.62
2017-12-13T06:06:38.211Z,2.66
2017-12-13T06:07:47.010Z,2.7
2017-12-13T06:08:55.809Z,2.8
2017-12-13T06:10:04.608Z,2.81
2017-12-13T06:11:13.139Z,2.81
2017-12-13T06:12:21.711Z,2.9
2017-12-13T06:13:30.509Z,2.93
2017-12-13T06:14:39.305Z,2.96
2017-12-13T06:15:48.369Z,2.88
2017-12-13T06:16:57.698Z,2.91
2017-12-13T06:18:06.231Z,2.98
2017-12-13T06:19:15.036Z,2.98
2017-12-13T06:20:24.104Z,2.96
2017-12-13T06:21:32.904Z,2.95
2017-12-13T06:22:41.699Z,3.02
2017-12-13T06:23:50.497Z,3.11
2017-12-13T06:24:59.100Z,3.05
2017-12-13T06:26:07.632Z,3.02
2017-12-13T06:27:16.164Z,2.99
2017-12-13T06:28:24.963Z,3.11
2017-12-13T06:29:33.493Z,3.11
2017-12-13T06:30:42.555Z,3.14
2017-12-13T06:31:51.356Z,3.19
2017-12-13T06:33:00.422Z,3.21
2017-12-13T06:34:10.571Z,3.21
2017-12-13T06:35:19.651Z,3.14
2017-12-13T06:36:28.713Z,3.21
2017-12-13T06:37:37.778Z,3.24
2017-12-13T06:38:46.581Z,3.19
2017-12-13T06:39:55.127Z,3.24
2017-12-13T06:41:04.200Z,3.23
2017-12-13T06:42:13.534Z,3.2
2017-12-13T06:43:22.069Z,3.3
2017-12-13T06:44:30.867Z,3.3
2017-12-13T06:45:39.664Z,3.27
2017-12-13T06:46:48.196Z,3.29
2017-12-13T06:47:56.723Z,3.3
2017-12-13T06:49:05.799Z,3.32
2017-12-13T06:50:14.932Z,3.39
2017-12-13T06:51:23.462Z,3.3
2017-12-13T06:52:32.259Z,3.34
2017-12-13T06:53:41.056Z,3.45
2017-12-13T06:54:50.118Z,3.45
2017-12-13T06:55:58.978Z,3.48
2017-12-13T06:57:07.783Z,3.45
2017-12-13T06:58:16.867Z,3.53
2017-12-13T06:59:25.664Z,3.53
2017-12-13T07:00:34.461Z,3.58
2017-12-13T07:01:42.992Z,3.57
2017-12-13T07:02:51.787Z,3.6
2017-12-13T07:04:00.593Z,3.64
2017-12-13T07:05:09.126Z,3.54
2017-12-13T07:06:17.923Z,3.57
2017-12-13T07:07:26.721Z,3.67
2017-12-13T07:08:35.849Z,3.64
2017-12-13T07:09:44.916Z,3.67
2017-12-13T07:10:53.718Z,3.67
2017-12-13T07:12:02.513Z,3.63
2017-12-13T07:13:11.043Z,3.75
2017-12-13T07:14:19.576Z,3.81
2017-12-13T07:15:28.375Z,3.78
2017-12-13T07:16:36.906Z,3.75
2017-12-13T07:17:45.710Z,3.76
2017-12-13T07:18:54.777Z,3.82
2017-12-13T07:20:03.576Z,3.78
2017-12-13T07:21:12.109Z,3.9
2017-12-13T07:22:21.444Z,3.84
2017-12-13T07:23:30.244Z,3.82
2017-12-13T07:24:38.775Z,3.89
2017-12-13T07:25:47.572Z,3.99
2017-12-13T07:26:56.468Z,3.9
2017-12-13T07:28:05.044Z,3.94
2017-12-13T07:29:13.846Z,3.94
2017-12-13T07:30:22.910Z,3.9
2017-12-13T07:31:31.707Z,3.97
2017-12-13T07:32:40.549Z,3.82
2017-12-13T07:33:49.594Z,3.96
2017-12-13T07:34:58.229Z,3.86
2017-12-13T07:36:07.306Z,3.86
2017-12-13T07:37:16.106Z,3.92
2017-12-13T07:38:24.904Z,3.99
2017-12-13T07:39:33.702Z,3.9
2017-12-13T07:40:42.498Z,3.97
2017-12-13T07:41:51.028Z,3.94
2017-12-13T07:42:59.569Z,3.97
2017-12-13T07:44:08.632Z,4
2017-12-13T07:45:17.436Z,3.99
2017-12-13T07:46:26.248Z,4.03
2017-12-13T07:47:35.320Z,4.11
2017-12-13T07:48:44.119Z,4.04
2017-12-13T07:49:52.650Z,3.99
2017-12-13T07:51:01.450Z,4
2017-12-13T07:52:10.251Z,4.07
2017-12-13T07:53:19.316Z,4.07
2017-12-13T07:54:27.846Z,4
2017-12-13T07:55:36.381Z,4.1
2017-12-13T07:56:45.449Z,4.17
2017-12-13T07:57:54.525Z,4.11
2017-12-13T07:59:03.321Z,4.17
2017-12-13T08:00:12.384Z,4.18
2017-12-13T08:01:21.181Z,4.17
2017-12-13T08:02:30.248Z,4.15
2017-12-13T08:03:39.549Z,4.15
2017-12-13T08:04:48.348Z,4.14
2017-12-13T08:05:57.442Z,4.22
2017-12-13T08:07:05.975Z,4.21
2017-12-13T08:08:14.773Z,4.15
2017-12-13T08:09:23.307Z,4.17
2017-12-13T08:10:32.103Z,4.18
2017-12-13T08:11:41.555Z,4.26
2017-12-13T08:12:50.356Z,4.21
2017-12-13T08:13:58.888Z,4.24
2017-12-13T08:15:07.960Z,4.18
2017-12-13T08:16:17.352Z,4.33
2017-12-13T08:17:25.893Z,4.29
2017-12-13T08:18:34.710Z,4.28
2017-12-13T08:19:43.560Z,4.2
2017-12-13T08:20:52.635Z,4.29
2017-12-13T08:22:01.443Z,4.21
2017-12-13T08:23:09.996Z,4.28
2017-12-13T08:24:19.075Z,4.26
2017-12-13T08:25:27.982Z,4.35
2017-12-13T08:26:37.270Z,4.22
2017-12-13T08:27:46.068Z,4.3
2017-12-13T08:28:54.885Z,4.29
2017-12-13T08:30:03.960Z,4.35
2017-12-13T08:31:12.675Z,4.24
2017-12-13T08:32:21.833Z,4.22
2017-12-13T08:33:30.524Z,4.26
2017-12-13T08:34:39.133Z,4.32
2017-12-13T08:35:48.343Z,4.29
2017-12-13T08:36:57.022Z,4.32
2017-12-13T08:38:05.562Z,4.36
2017-12-13T08:39:14.105Z,4.39
2017-12-13T08:40:22.645Z,4.3
2017-12-13T08:41:31.449Z,4.39
2017-12-13T08:42:40.260Z,4.36
2017-12-13T08:43:49.611Z,4.36
2017-12-13T08:44:58.165Z,4.38
2017-12-13T08:46:06.711Z,4.4
2017-12-13T08:47:15.520Z,4.39
2017-12-13T08:48:24.595Z,4.44
2017-12-13T08:49:33.455Z,4.47
2017-12-13T08:50:42.257Z,4.42
2017-12-13T08:51:51.336Z,4.47
2017-12-13T08:52:59.871Z,4.53
2017-12-13T08:54:08.967Z,4.51
2017-12-13T08:55:17.852Z,4.51
2017-12-13T08:56:26.651Z,4.46
2017-12-13T08:57:35.453Z,4.58
2017-12-13T08:58:44.016Z,4.51
2017-12-13T08:59:52.551Z,4.6
2017-12-13T09:01:01.617Z,4.57
2017-12-13T09:02:10.421Z,4.6
2017-12-13T09:03:18.969Z,4.56
2017-12-13T09:04:27.774Z,4.64
2017-12-13T09:05:36.317Z,4.6
2017-12-13T09:06:45.068Z,4.64
2017-12-13T09:07:53.629Z,4.6
2017-12-13T09:09:02.172Z,4.64
2017-12-13T09:10:10.977Z,4.64
2017-12-13T09:11:19.782Z,4.64
2017-12-13T09:12:29.786Z,4.66
2017-12-13T09:13:39.129Z,4.72
2017-12-13T09:14:48.464Z,4.58
2017-12-13T09:15:58.042Z,4.75
2017-12-13T09:17:08.159Z,4.64
2017-12-13T09:18:16.705Z,4.74
2017-12-13T09:19:25.787Z,4.66
2017-12-13T09:20:34.596Z,4.71
2017-12-13T09:21:43.667Z,4.68
2017-12-13T09:22:52.731Z,4.65
2017-12-13T09:24:02.120Z,4.69
2017-12-13T09:25:10.653Z,4.74
2017-12-13T09:26:19.454Z,4.79
2017-12-13T09:27:28.254Z,4.74
2017-12-13T09:28:37.327Z,4.79
2017-12-13T09:29:46.415Z,4.76
2017-12-13T09:30:55.759Z,4.76
2017-12-13T09:32:04.332Z,4.76
2017-12-13T09:33:12.873Z,4.74
2017-12-13T09:34:21.678Z,4.76
2017-12-13T09:35:30.994Z,4.79
2017-12-13T09:36:39.527Z,4.83
2017-12-13T09:37:48.064Z,4.88
2017-12-13T09:38:56.864Z,4.79
2017-12-13T09:40:05.931Z,4.85
2017-12-13T09:41:14.999Z,4.75
2017-12-13T09:42:23.803Z,4.75
2017-12-13T09:43:32.343Z,4.74
2017-12-13T09:44:41.142Z,4.74
2017-12-13T09:45:50.244Z,4.78
2017-12-13T09:46:59.042Z,4.84
2017-12-13T09:48:08.377Z,4.85
2017-12-13T09:49:17.177Z,4.74
2017-12-13T09:50:26.259Z,4.84
2017-12-13T09:51:35.203Z,4.74
2017-12-13T09:52:44.268Z,4.87
2017-12-13T09:53:53.337Z,4.79
2017-12-13T09:55:01.874Z,4.79
2017-12-13T09:56:10.409Z,4.78
2017-12-13T09:57:19.044Z,4.85
2017-12-13T09:58:27.582Z,4.84
2017-12-13T09:59:36.383Z,4.9
2017-12-13T10:00:44.919Z,4.84
2017-12-13T10:01:53.454Z,4.9
2017-12-13T10:03:02.250Z,4.91
2017-12-13T10:04:11.321Z,4.88
2017-12-13T10:05:20.134Z,4.94
2017-12-13T10:06:29.261Z,4.94
2017-12-13T10:07:37.794Z,4.9
2017-12-13T10:08:46.594Z,4.88
2017-12-13T10:09:55.393Z,4.97
2017-12-13T10:11:03.930Z,4.98
2017-12-13T10:12:12.784Z,4.94
2017-12-13T10:13:22.167Z,5
2017-12-13T10:14:31.026Z,4.97
2017-12-13T10:15:40.096Z,5.02
2017-12-13T10:16:48.630Z,4.97
2017-12-13T10:17:57.436Z,4.98
2017-12-13T10:19:06.255Z,4.95
2017-12-13T10:20:15.056Z,5.03
2017-12-13T10:21:23.586Z,5.03
2017-12-13T10:22:32.140Z,5.03
2017-12-13T10:23:41.212Z,5.05
2017-12-13T10:24:49.740Z,5.02
2017-12-13T10:25:58.538Z,5
2017-12-13T10:27:07.411Z,5.05
2017-12-13T10:28:16.780Z,5.05
2017-12-13T10:29:25.578Z,5.08
2017-12-13T10:30:34.111Z,5.15
2017-12-13T10:31:43.179Z,5.06
2017-12-13T10:32:51.715Z,5.18
2017-12-13T10:34:00.585Z,5.2
2017-12-13T10:35:09.266Z,5.18
2017-12-13T10:36:18.066Z,5.2
2017-12-13T10:37:27.187Z,5.15
2017-12-13T10:38:35.995Z,5.06
2017-12-13T10:39:45.122Z,5.23
2017-12-13T10:40:53.922Z,5.18
2017-12-13T10:42:02.723Z,5.13
2017-12-13T10:43:11.531Z,5.21
2017-12-13T10:44:20.064Z,5.2
2017-12-13T10:45:29.205Z,5.16
2017-12-13T10:46:38.248Z,5.15
2017-12-13T10:47:46.784Z,5.15
2017-12-13T10:48:55.584Z,5.2
2017-12-13T10:50:04.124Z,5.16
2017-12-13T10:51:12.658Z,5.16
2017-12-13T10:52:21.738Z,5.13
2017-12-13T10:53:31.126Z,5.2
2017-12-13T10:54:40.190Z,5.2
2017-12-13T10:55:48.735Z,5.15
2017-12-13T10:56:57.271Z,5.15
2017-12-13T10:58:06.080Z,5.23
2017-12-13T10:59:15.418Z,5.18
2017-12-13T11:00:23.974Z,5.2
2017-12-13T11:01:33.046Z,5.2
2017-12-13T11:02:41.850Z,5.13
2017-12-13T11:03:50.380Z,5.24
2017-12-13T11:04:58.953Z,5.15
2017-12-13T11:06:08.019Z,5.24
2017-12-13T11:07:17.087Z,5.16
2017-12-13T11:08:25.888Z,5.2
2017-12-13T11:09:34.418Z,5.21
2017-12-13T11:10:43.218Z,5.24
2017-12-13T11:11:51.758Z,5.24
2017-12-13T11:13:00.561Z,5.27
2017-12-13T11:14:09.360Z,5.26
2017-12-13T11:15:17.892Z,5.24
2017-12-13T11:16:26.424Z,5.26
2017-12-13T11:17:35.228Z,5.24
2017-12-13T11:18:43.763Z,5.34
2017-12-13T11:19:52.302Z,5.24
2017-12-13T11:21:01.375Z,5.34
2017-12-13T11:22:10.173Z,5.33
2017-12-13T11:23:18.974Z,5.34
2017-12-13T11:24:27.508Z,5.33
2017-12-13T11:25:36.585Z,5.31
2017-12-13T11:26:45.119Z,5.34
2017-12-13T11:27:53.652Z,5.33
2017-12-13T11:29:03.903Z,5.36
2017-12-13T11:30:12.699Z,5.3
2017-12-13T11:31:21.230Z,5.33
2017-12-13T11:32:29.767Z,5.37
2017-12-13T11:33:38.570Z,5.36
2017-12-13T11:34:47.381Z,5.36
2017-12-13T11:35:56.459Z,5.31
2017-12-13T11:37:04.993Z,5.37
2017-12-13T11:38:13.796Z,5.37
2017-12-13T11:39:22.377Z,5.37
2017-12-13T11:40:30.909Z,5.44
2017-12-13T11:41:39.714Z,5.34
2017-12-13T11:42:48.516Z,5.41
2017-12-13T11:43:57.068Z,5.42
2017-12-13T11:45:05.622Z,5.46
2017-12-13T11:46:14.740Z,5.37
2017-12-13T11:47:24.397Z,5.42
2017-12-13T11:48:32.930Z,5.41
2017-12-13T11:49:41.468Z,5.44
2017-12-13T11:50:51.160Z,5.45
2017-12-13T11:52:00.227Z,5.42
2017-12-13T11:53:09.084Z,5.42
2017-12-13T11:54:17.703Z,5.39
2017-12-13T11:55:26.306Z,5.42
2017-12-13T11:56:35.134Z,5.48
2017-12-13T11:57:44.674Z,5.57
2017-12-13T11:58:53.458Z,5.51
2017-12-13T12:00:02.009Z,5.51
2017-12-13T12:01:11.083Z,5.48
2017-12-13T12:02:19.899Z,5.51
2017-12-13T12:03:28.718Z,5.49
2017-12-13T12:04:37.254Z,5.46
2017-12-13T12:05:46.058Z,5.54
2017-12-13T12:06:54.914Z,5.54
2017-12-13T12:08:03.743Z,5.48
2017-12-13T12:09:12.546Z,5.54
2017-12-13T12:10:21.429Z,5.54
2017-12-13T12:11:30.055Z,5.55
2017-12-13T12:12:38.859Z,5.63
2017-12-13T12:13:47.661Z,5.51
2017-12-13T12:14:56.461Z,5.59
2017-12-13T12:16:05.268Z,5.46
2017-12-13T12:17:13.811Z,5.55
2017-12-13T12:18:22.338Z,5.52
2017-12-13T12:19:30.876Z,5.59
2017-12-13T12:20:39.947Z,5.55
2017-12-13T12:21:48.753Z,5.48
2017-12-13T12:22:57.559Z,5.54
2017-12-13T12:24:06.645Z,5.54
2017-12-13T12:25:15.277Z,5.54
2017-12-13T12:26:23.825Z,5.51
2017-12-13T12:27:32.372Z,5.49
2017-12-13T12:28:41.352Z,5.57
2017-12-13T12:29:50.738Z,5.52
2017-12-13T12:30:59.543Z,5.63
2017-12-13T12:32:08.361Z,5.6
2017-12-13T12:33:17.451Z,5.59
2017-12-13T12:34:26.582Z,5.51
2017-12-13T12:35:35.393Z,5.59
2017-12-13T12:36:44.622Z,5.62
2017-12-13T12:37:54.144Z,5.6
2017-12-13T12:39:02.909Z,5.59
2017-12-13T12:40:12.056Z,5.6
2017-12-13T12:41:21.455Z,5.6
2017-12-13T12:42:30.517Z,5.64
2017-12-13T12:43:39.474Z,5.64
2017-12-13T12:44:48.346Z,5.64
2017-12-13T12:45:56.925Z,5.67
2017-12-13T12:47:05.726Z,5.62
2017-12-13T12:48:14.261Z,5.66
2017-12-13T12:49:23.067Z,5.66
2017-12-13T12:50:32.144Z,5.63
2017-12-13T12:51:40.943Z,5.69
2017-12-13T12:52:49.475Z,5.7
2017-12-13T12:53:58.017Z,5.69
2017-12-13T12:55:07.089Z,5.69
2017-12-13T12:56:16.425Z,5.69
2017-12-13T12:57:24.960Z,5.69
2017-12-13T12:58:34.293Z,5.67
2017-12-13T12:59:43.151Z,5.7
2017-12-13T13:00:52.229Z,5.67
2017-12-13T13:02:01.027Z,5.72
2017-12-13T13:03:09.564Z,5.72
2017-12-13T13:04:18.373Z,5.66
2017-12-13T13:05:26.921Z,5.7
2017-12-13T13:06:35.998Z,5.72
2017-12-13T13:07:44.530Z,5.69
2017-12-13T13:08:53.102Z,5.67
2017-12-13T13:10:01.868Z,5.69
2017-12-13T13:11:10.400Z,5.67
2017-12-13T13:12:19.471Z,5.67
2017-12-13T13:13:28.009Z,5.67
2017-12-13T13:14:36.812Z,5.72
2017-12-13T13:15:45.338Z,5.72
2017-12-13T13:16:54.406Z,5.69
2017-12-13T13:18:03.209Z,5.67
2017-12-13T13:19:12.016Z,5.69
2017-12-13T13:20:21.088Z,5.67
2017-12-13T13:21:30.159Z,5.7
2017-12-13T13:22:39.246Z,5.7
2017-12-13T13:23:48.108Z,5.66
2017-12-13T13:24:56.648Z,5.73
2017-12-13T13:26:05.981Z,5.77
2017-12-13T13:27:14.511Z,5.73
2017-12-13T13:28:23.582Z,5.81
2017-12-13T13:29:32.116Z,5.81
2017-12-13T13:30:40.804Z,5.81
2017-12-13T13:31:49.344Z,5.85
2017-12-13T13:32:57.879Z,5.84
2017-12-13T13:34:06.419Z,5.81
2017-12-13T13:35:15.271Z,5.77
2017-12-13T13:36:24.341Z,5.82
2017-12-13T13:37:32.875Z,5.8
2017-12-13T13:38:41.408Z,5.88
2017-12-13T13:39:50.740Z,5.78
2017-12-13T13:40:59.276Z,5.84
2017-12-13T13:42:08.340Z,5.87
2017-12-13T13:43:17.560Z,5.81
2017-12-13T13:44:26.370Z,5.85
2017-12-13T13:45:35.172Z,5.85
2017-12-13T13:46:43.709Z,5.85
2017-12-13T13:47:52.782Z,5.84
2017-12-13T13:49:01.588Z,5.8
2017-12-13T13:50:10.127Z,5.87
2017-12-13T13:51:18.939Z,5.81
2017-12-13T13:52:27.474Z,5.87
2017-12-13T13:53:36.537Z,5.84
2017-12-13T13:54:45.079Z,5.8
2017-12-13T13:55:53.619Z,5.82
2017-12-13T13:57:02.735Z,5.89
2017-12-13T13:58:11.796Z,5.81
2017-12-13T13:59:20.337Z,5.82
2017-12-13T14:00:28.986Z,5.88
2017-12-13T14:01:37.634Z,5.92
2017-12-13T14:02:46.456Z,5.95
2017-12-13T14:03:54.989Z,5.98
2017-12-13T14:05:04.056Z,5.82
2017-12-13T14:06:13.232Z,5.91
2017-12-13T14:07:21.764Z,5.81
2017-12-13T14:08:30.297Z,5.85
2017-12-13T14:09:38.832Z,5.85
2017-12-13T14:10:47.632Z,5.91
2017-12-13T14:11:56.165Z,5.84
2017-12-13T14:13:04.970Z,5.87
2017-12-13T14:14:14.331Z,5.87
2017-12-13T14:15:23.139Z,5.81
2017-12-13T14:16:31.938Z,5.96
2017-12-13T14:17:40.734Z,5.82
2017-12-13T14:18:49.607Z,5.96
2017-12-13T14:19:58.465Z,5.85
2017-12-13T14:21:07.535Z,5.95
2017-12-13T14:22:16.335Z,5.96
2017-12-13T14:23:25.678Z,5.91
2017-12-13T14:24:34.561Z,5.88
2017-12-13T14:25:43.177Z,5.95
2017-12-13T14:26:52.636Z,5.96
2017-12-13T14:28:01.180Z,5.91
2017-12-13T14:29:09.812Z,5.92
2017-12-13T14:30:18.701Z,5.98
2017-12-13T14:31:27.777Z,5.89
2017-12-13T14:32:36.852Z,5.92
2017-12-13T14:33:46.189Z,5.89
2017-12-13T14:34:54.991Z,5.91
2017-12-13T14:36:03.523Z,5.98
2017-12-13T14:37:12.323Z,5.92
2017-12-13T14:38:21.401Z,5.92
2017-12-13T14:39:30.683Z,6
2017-12-13T14:40:39.752Z,5.92
2017-12-13T14:41:48.289Z,6.02
2017-12-13T14:42:57.094Z,6.07
2017-12-13T14:44:06.165Z,6.06
2017-12-13T14:45:14.704Z,5.96
2017-12-13T14:46:23.864Z,6.02
2017-12-13T14:47:32.666Z,6.02
2017-12-13T14:48:41.811Z,6.03
2017-12-13T14:49:50.356Z,5.99
2017-12-13T14:50:58.898Z,6
2017-12-13T14:52:07.702Z,5.99
2017-12-13T14:53:16.507Z,5.98
2017-12-13T14:54:25.310Z,6.03
2017-12-13T14:55:34.376Z,6.03
2017-12-13T14:56:42.912Z,5.98
2017-12-13T14:57:51.447Z,5.99
2017-12-13T14:59:00.248Z,5.98
2017-12-13T15:00:09.051Z,5.96
2017-12-13T15:01:17.583Z,5.95
2017-12-13T15:02:26.119Z,5.99
2017-12-13T15:03:34.662Z,5.98
2017-12-13T15:04:43.209Z,5.95
2017-12-13T15:05:52.028Z,5.92
2017-12-13T15:07:00.864Z,5.96
2017-12-13T15:08:09.940Z,5.92
2017-12-13T15:09:18.740Z,6.03
2017-12-13T15:10:27.282Z,5.92
2017-12-13T15:11:35.879Z,5.96
2017-12-13T15:12:44.359Z,5.92
2017-12-13T15:13:52.977Z,5.91
2017-12-13T15:15:01.517Z,6
2017-12-13T15:16:10.359Z,6
2017-12-13T15:17:19.161Z,6.02
2017-12-13T15:18:27.969Z,5.99
2017-12-13T15:19:36.503Z,5.96
2017-12-13T15:20:45.040Z,5.96